La Palma > ESTACION METEOROLÓGICA La Galga - Puntallana

DATOS ACTUALES Online

Ultima actulizacion 1 minutos

15.1 ºC

Temperatura

95

Humedad (%)

963.7

Presión (mb)

4.8

Precipitación (mm)

0 W

Viento (Km/h)

DATOS DIARIOS

Temperatura últimas 24 horas (ºC)

Humedad últimas 24 horas (%)

Presión atmosférica últimas 24 horas (mb)

Precipitaciones últimas 23 horas (mm)

Viento últimas 24 horas (Km/h)

Hora Temperatura (°C) ºC Precipitación (mm) mm Presión (mb) mb Humedad (%) % Viento (Km/h) km/h
28 - 10:00 18.1 0 963 83 0 SSW
28 - 11:00 20.9 0 964 70 0 NE
28 - 12:00 21.2 0 964 62 0 W
28 - 13:00 23 0 964 63 0 NE
28 - 14:00 19.8 0 964 75 0 N
28 - 15:00 19.7 0 963 77 0 NE
28 - 16:00 18.8 0 964 80 0 ENE
28 - 17:00 18 0 963 83 0 NNE
28 - 18:00 18.3 0 963 84 0 ENE
28 - 19:00 17.4 0 964 85 0 WNW
28 - 20:00 16.9 0 964 89 0 NNW
28 - 21:00 14.7 0 962 92 0 W
28 - 22:00 16.2 0.5 964 96 0 NW
28 - 23:00 15.9 0.5 965 96 0 NNW
29 - 00:00 15.9 0.5 964 96 0 WNW
29 - 01:00 15.6 0 964 93 0 W
29 - 02:00 15.6 1 963 95 0 W
29 - 03:00 15.1 2.8 963 96 0 W
29 - 04:00 14.9 3.6 963 97 0 WNW
29 - 05:00 14.4 3.8 963 96 0 W
29 - 06:00 14.5 3.8 963 95 0 W
29 - 07:00 15.2 3.8 963 93 0 W
29 - 08:00 16.6 3.8 964 83 0 NW
29 - 09:00 16.3 4.1 964 86 0 NW
29 - 10:00 15.1 4.8 964 95 0 W
Apalmet utiliza cookies propias y de terceros para mejorar la usabilidad y la experiencia web. Política de cookies.